Time;durP1;ratioP1;P1;durP2;ratioP2;P2;SDS_P1;SDS_P2;PMS_P1;PMS_P2;Temp;Humidity;BMP_temperature;BMP_pressure;BME280_temperature;BME280_humidity;BME280_pressure;Samples;Min_cycle;Max_cycle;Signal;HPM_P1;HPM_P2
2021/07/12 00:00:20;;;;;;;12.75;4.10;;;23.30;71.40;;;;;;4964220;28;20080;-60
2021/07/12 00:02:46;;;;;;;9.02;3.55;;;23.30;71.60;;;;;;4979714;28;20117;-59
2021/07/12 00:05:12;;;;;;;11.55;3.53;;;23.30;71.60;;;;;;4981284;28;20117;-59
2021/07/12 00:07:38;;;;;;;9.55;3.78;;;23.20;71.60;;;;;;4983369;28;20045;-59
2021/07/12 00:10:05;;;;;;;14.20;3.75;;;23.20;71.70;;;;;;4980920;28;20114;-60
2021/07/12 00:12:31;;;;;;;12.80;3.20;;;23.20;71.70;;;;;;4980371;28;20116;-59
2021/07/12 00:14:56;;;;;;;11.15;3.33;;;23.10;71.70;;;;;;4980959;28;20050;-59
2021/07/12 00:17:22;;;;;;;12.40;3.53;;;23.10;71.80;;;;;;4981642;28;20089;-60
2021/07/12 00:19:47;;;;;;;10.90;3.58;;;23.10;71.90;;;;;;4980877;28;20457;-59
2021/07/12 00:22:13;;;;;;;8.43;3.13;;;23.10;71.90;;;;;;4981501;28;20038;-59
2021/07/12 00:24:38;;;;;;;8.75;3.60;;;23.00;71.90;;;;;;4977928;28;20149;-60
2021/07/12 00:27:04;;;;;;;9.13;3.30;;;23.00;72.00;;;;;;4978557;28;20117;-59
2021/07/12 00:29:29;;;;;;;8.40;3.55;;;23.00;72.00;;;;;;4980632;28;20069;-59
2021/07/12 00:31:55;;;;;;;8.73;3.85;;;23.00;72.10;;;;;;4980582;28;20037;-59
2021/07/12 00:34:20;;;;;;;5.22;3.42;;;22.90;72.80;;;;;;4979958;28;20128;-59
2021/07/12 00:36:46;;;;;;;9.88;2.83;;;22.90;72.20;;;;;;4980533;28;20096;-60
2021/07/12 00:39:11;;;;;;;6.38;4.07;;;22.90;72.20;;;;;;4981065;28;20089;-60
2021/07/12 00:41:37;;;;;;;7.35;3.38;;;22.80;72.20;;;;;;4980622;28;20069;-60
2021/07/12 00:44:04;;;;;;;6.18;3.65;;;22.80;72.30;;;;;;4980045;28;20076;-60
2021/07/12 00:46:30;;;;;;;8.18;3.72;;;22.80;72.40;;;;;;4981236;28;20015;-60
2021/07/12 00:48:55;;;;;;;7.47;3.65;;;22.80;72.50;;;;;;4980653;28;20038;-60
2021/07/12 00:51:21;;;;;;;5.88;3.67;;;22.70;72.50;;;;;;4980556;28;20084;-60
2021/07/12 00:53:47;;;;;;;7.72;4.38;;;22.70;72.70;;;;;;4979154;28;20622;-60
2021/07/12 00:56:13;;;;;;;8.98;4.75;;;22.60;72.70;;;;;;4980913;28;20034;-61
2021/07/12 00:58:38;;;;;;;7.65;4.50;;;22.70;72.80;;;;;;4980889;28;20046;-60
2021/07/12 01:01:04;;;;;;;7.00;4.47;;;22.60;72.80;;;;;;4985138;28;20478;-61
2021/07/12 01:03:30;;;;;;;8.23;5.05;;;22.60;72.80;;;;;;4963350;28;20058;-61
2021/07/12 01:05:55;;;;;;;5.47;3.70;;;22.60;72.90;;;;;;4983212;28;20096;-60
2021/07/12 01:08:21;;;;;;;7.40;4.50;;;22.50;72.90;;;;;;4983836;28;20442;-61
2021/07/12 01:11:10;;;;;;;8.50;4.40;;;22.50;73.10;;;;;;4985930;28;20117;-61
2021/07/12 01:13:41;;;;;;;10.80;4.15;;;22.50;73.10;;;;;;4971964;28;20551;-60
2021/07/12 01:16:18;;;;;;;6.90;4.05;;;22.50;73.20;;;;;;4968600;28;20026;-60
2021/07/12 01:19:07;;;;;;;6.75;3.95;;;22.40;73.30;;;;;;4984280;28;20168;-60
2021/07/12 01:21:54;;;;;;;9.40;4.50;;;22.40;73.30;;;;;;4982772;28;20022;-60
2021/07/12 01:24:57;;;;;;;11.00;5.30;;;22.40;73.40;;;;;;4985045;28;20048;-60
2021/07/12 01:27:57;;;;;;;6.70;5.00;;;22.40;73.50;;;;;;4984031;28;20046;-60
2021/07/12 01:30:40;;;;;;;5.15;4.18;;;22.30;73.40;;;;;;4984161;28;20462;-60
2021/07/12 01:33:17;;;;;;;5.90;4.00;;;22.30;73.60;;;;;;4981517;28;20118;-60
2021/07/12 01:35:55;;;;;;;6.13;4.45;;;22.30;73.70;;;;;;4997014;28;20112;-59
2021/07/12 01:38:39;;;;;;;4.75;4.10;;;22.20;73.70;;;;;;4984348;28;20441;-61
2021/07/12 01:41:23;;;;;;;5.28;3.75;;;22.20;73.80;;;;;;4982122;28;20022;-60
2021/07/12 01:44:04;;;;;;;6.90;3.88;;;22.20;74.00;;;;;;4983132;28;20050;-60
2021/07/12 01:46:51;;;;;;;5.43;3.90;;;22.10;74.00;;;;;;4966522;28;20413;-61
2021/07/12 01:49:29;;;;;;;5.72;3.85;;;22.10;74.10;;;;;;4984446;28;20430;-60
2021/07/12 01:52:11;;;;;;;4.13;3.60;;;22.10;74.20;;;;;;4968587;28;20034;-61
2021/07/12 01:55:03;;;;;;;4.70;3.28;;;22.00;74.20;;;;;;4967936;28;20049;-60
2021/07/12 01:58:11;;;;;;;3.42;3.10;;;22.00;74.30;;;;;;4982617;28;20041;-60
2021/07/12 02:00:38;;;;;;;5.75;3.15;;;22.00;74.50;;;;;;4981693;28;20107;-60
2021/07/12 02:03:03;;;;;;;6.35;3.53;;;21.90;74.50;;;;;;4983166;28;20030;-61
2021/07/12 02:05:30;;;;;;;4.28;3.40;;;21.90;74.60;;;;;;4965940;28;20037;-61
2021/07/12 02:07:56;;;;;;;4.03;3.30;;;21.90;74.60;;;;;;4983714;28;20049;-61
2021/07/12 02:10:24;;;;;;;6.82;3.97;;;21.90;74.70;;;;;;4966657;28;20030;-61
2021/07/12 02:12:50;;;;;;;6.50;4.35;;;21.90;74.80;;;;;;4982418;28;20034;-61
2021/07/12 02:15:16;;;;;;;4.85;4.07;;;21.80;74.90;;;;;;4978528;28;20128;-59
2021/07/12 02:17:41;;;;;;;5.05;4.13;;;21.80;74.90;;;;;;4966910;28;20504;-59
2021/07/12 02:20:08;;;;;;;5.97;3.75;;;21.80;75.00;;;;;;4982725;28;20450;-59
2021/07/12 02:22:34;;;;;;;4.63;3.83;;;21.80;75.00;;;;;;4982339;28;20039;-59
2021/07/12 02:25:00;;;;;;;3.92;3.53;;;21.80;75.00;;;;;;4965939;28;20509;-59
2021/07/12 02:27:25;;;;;;;5.97;3.50;;;21.70;75.10;;;;;;4983418;28;20149;-59
2021/07/12 02:29:51;;;;;;;6.53;3.65;;;21.70;75.10;;;;;;4983946;28;20398;-59
2021/07/12 02:32:18;;;;;;;3.60;3.30;;;21.60;75.20;;;;;;4983216;28;20032;-59
2021/07/12 02:34:43;;;;;;;3.85;3.55;;;21.60;75.30;;;;;;4967142;28;20030;-59
2021/07/12 02:37:09;;;;;;;4.20;3.25;;;21.60;75.40;;;;;;4964680;28;20096;-59
2021/07/12 02:39:35;;;;;;;4.47;3.00;;;21.60;75.50;;;;;;4965537;28;20058;-60
2021/07/12 02:42:02;;;;;;;4.40;3.47;;;21.50;75.60;;;;;;4982448;28;20042;-59
2021/07/12 02:44:28;;;;;;;5.70;3.15;;;21.50;75.60;;;;;;4981934;28;20034;-60
2021/07/12 02:46:53;;;;;;;3.63;2.90;;;21.50;75.60;;;;;;4982692;28;20516;-60
2021/07/12 02:49:19;;;;;;;6.07;2.83;;;21.50;75.70;;;;;;4982928;28;20088;-59
2021/07/12 02:51:49;;;;;;;4.25;2.55;;;21.50;75.80;;;;;;4976194;28;20042;-60
2021/07/12 02:54:18;;;;;;;5.07;2.90;;;21.50;75.90;;;;;;4982297;28;20023;-60
2021/07/12 02:56:44;;;;;;;5.28;2.92;;;21.50;76.00;;;;;;4983104;28;20104;-59
2021/07/12 02:59:10;;;;;;;3.15;2.72;;;21.40;76.00;;;;;;4982344;28;20042;-59
2021/07/12 03:01:35;;;;;;;4.43;2.67;;;21.40;76.10;;;;;;4981996;28;20023;-59
2021/07/12 03:04:00;;;;;;;4.05;2.70;;;21.40;76.10;;;;;;4982601;28;20027;-59
2021/07/12 03:06:28;;;;;;;4.05;2.80;;;21.30;76.10;;;;;;4982116;28;20105;-59
2021/07/12 03:09:02;;;;;;;3.03;2.72;;;21.30;76.30;;;;;;4982312;28;20049;-59
2021/07/12 03:11:34;;;;;;;4.25;2.58;;;21.30;76.30;;;;;;4982145;28;20109;-59
2021/07/12 03:14:10;;;;;;;2.85;2.53;;;21.30;76.40;;;;;;4981548;28;20035;-59
2021/07/12 03:16:37;;;;;;;5.05;3.10;;;21.30;76.40;;;;;;4997510;28;20022;-59
2021/07/12 03:19:03;;;;;;;3.70;2.60;;;21.20;76.40;;;;;;4981587;28;20068;-59
2021/07/12 03:21:28;;;;;;;2.50;2.05;;;21.20;76.50;;;;;;4982245;28;21061;-59
2021/07/12 03:23:55;;;;;;;3.30;2.17;;;21.20;76.60;;;;;;4965947;28;20058;-60
2021/07/12 03:26:21;;;;;;;2.60;2.30;;;21.10;76.70;;;;;;4977820;28;20481;-59
2021/07/12 03:28:48;;;;;;;4.18;2.30;;;21.10;76.80;;;;;;4982693;28;20045;-59
2021/07/12 03:31:14;;;;;;;4.47;2.90;;;21.10;76.90;;;;;;4981839;28;20506;-59
2021/07/12 03:33:39;;;;;;;2.30;2.10;;;21.00;76.90;;;;;;4974619;28;20450;-59
2021/07/12 03:36:05;;;;;;;2.72;2.28;;;21.00;77.00;;;;;;4979623;28;20507;-59
2021/07/12 03:38:30;;;;;;;2.67;2.03;;;21.00;77.20;;;;;;4981722;28;20035;-59
2021/07/12 03:40:56;;;;;;;3.72;1.90;;;21.00;77.20;;;;;;4981746;28;20515;-59
2021/07/12 03:43:21;;;;;;;4.57;2.25;;;20.90;77.30;;;;;;4980220;28;20077;-59
2021/07/12 03:45:59;;;;;;;2.40;2.20;;;20.90;77.30;;;;;;4982029;28;20022;-60
2021/07/12 03:48:44;;;;;;;2.22;1.92;;;20.90;77.40;;;;;;4981453;28;20146;-59
2021/07/12 03:51:19;;;;;;;3.08;2.42;;;20.90;77.60;;;;;;4981269;28;20035;-59
2021/07/12 03:53:45;;;;;;;6.35;2.22;;;20.80;77.60;;;;;;4981287;28;20038;-59
2021/07/12 03:56:10;;;;;;;2.47;1.90;;;20.80;77.60;;;;;;4981058;28;20034;-59
2021/07/12 03:58:36;;;;;;;3.38;2.20;;;20.80;77.80;;;;;;4981342;28;20460;-59
2021/07/12 04:01:01;;;;;;;2.85;2.20;;;20.70;77.70;;;;;;4981829;28;20045;-59
2021/07/12 04:03:27;;;;;;;2.38;2.17;;;20.70;77.90;;;;;;4981729;28;20382;-59
2021/07/12 04:05:52;;;;;;;3.08;2.17;;;20.70;77.90;;;;;;4976238;28;20446;-59
2021/07/12 04:08:18;;;;;;;2.90;2.17;;;20.70;77.90;;;;;;4979273;28;20030;-59
2021/07/12 04:10:43;;;;;;;3.55;2.30;;;20.60;78.00;;;;;;4980938;28;20062;-59
2021/07/12 04:13:09;;;;;;;2.83;2.28;;;20.60;78.10;;;;;;4981256;28;20112;-59
2021/07/12 04:15:35;;;;;;;4.32;2.00;;;20.60;78.20;;;;;;4982277;28;20064;-59
2021/07/12 04:18:00;;;;;;;3.03;2.05;;;20.60;78.30;;;;;;4981894;28;20112;-59
2021/07/12 04:20:26;;;;;;;4.55;1.95;;;20.50;78.30;;;;;;4979195;28;20506;-59
2021/07/12 04:22:51;;;;;;;2.72;1.80;;;20.50;78.30;;;;;;4980535;28;20053;-59
2021/07/12 04:25:17;;;;;;;2.65;2.10;;;20.50;78.90;;;;;;4982560;28;20057;-59
2021/07/12 04:27:42;;;;;;;2.10;1.70;;;20.50;78.30;;;;;;4980495;28;20039;-59
2021/07/12 04:30:09;;;;;;;5.05;2.10;;;20.50;78.20;;;;;;4981043;28;20026;-59
2021/07/12 04:32:34;;;;;;;5.15;2.00;;;20.50;78.60;;;;;;4981548;28;20022;-59
2021/07/12 04:35:00;;;;;;;2.05;1.80;;;20.50;78.50;;;;;;4980065;28;20042;-58
2021/07/12 04:37:25;;;;;;;3.55;1.90;;;20.40;78.60;;;;;;4995080;28;20080;-59
2021/07/12 04:39:51;;;;;;;4.78;1.63;;;20.40;78.60;;;;;;4998770;28;20030;-59
2021/07/12 04:42:16;;;;;;;2.55;1.98;;;20.40;78.70;;;;;;4985816;28;20031;-59
2021/07/12 04:44:42;;;;;;;4.50;2.00;;;20.40;78.60;;;;;;4984315;28;20077;-59
2021/07/12 04:47:08;;;;;;;2.97;1.65;;;20.40;78.70;;;;;;4985225;28;20038;-59
2021/07/12 04:49:33;;;;;;;3.38;2.00;;;20.40;78.70;;;;;;4984023;28;20031;-59
2021/07/12 04:51:59;;;;;;;4.85;2.20;;;20.40;78.70;;;;;;4986240;28;20038;-59
2021/07/12 04:54:25;;;;;;;4.10;2.13;;;20.40;78.70;;;;;;4985110;28;20042;-59
2021/07/12 04:56:50;;;;;;;3.15;2.00;;;20.40;78.70;;;;;;4985112;28;20030;-59
2021/07/12 04:59:17;;;;;;;2.67;1.92;;;20.40;78.70;;;;;;4984653;28;20125;-59
2021/07/12 05:01:43;;;;;;;2.60;1.77;;;20.40;78.70;;;;;;4985099;28;20113;-59
2021/07/12 05:04:09;;;;;;;2.80;1.92;;;20.40;78.80;;;;;;4981782;28;20038;-59
2021/07/12 05:06:34;;;;;;;3.08;1.58;;;20.40;78.80;;;;;;4984724;28;20130;-59
2021/07/12 05:09:00;;;;;;;2.35;1.88;;;20.40;78.70;;;;;;4984549;28;20313;-58
2021/07/12 05:11:26;;;;;;;4.65;2.28;;;20.40;78.80;;;;;;4979566;28;20045;-59
2021/07/12 05:13:52;;;;;;;2.60;2.10;;;20.40;79.00;;;;;;4982747;28;20113;-59
2021/07/12 05:16:17;;;;;;;2.83;2.30;;;20.40;79.00;;;;;;4986677;28;20105;-59
2021/07/12 05:18:43;;;;;;;2.35;1.67;;;20.40;79.00;;;;;;4983516;28;20142;-59
2021/07/12 05:21:08;;;;;;;3.30;1.70;;;20.30;79.00;;;;;;4999668;28;20101;-59
2021/07/12 05:23:35;;;;;;;3.35;1.98;;;20.40;79.00;;;;;;4984163;28;20030;-59
2021/07/12 05:26:01;;;;;;;2.08;1.73;;;20.40;79.10;;;;;;4984172;28;20026;-59
2021/07/12 05:28:26;;;;;;;4.07;2.10;;;20.40;79.20;;;;;;4982787;28;20064;-59
2021/07/12 05:30:52;;;;;;;2.10;1.77;;;20.40;79.00;;;;;;4984359;28;20349;-59
2021/07/12 05:33:17;;;;;;;2.35;1.90;;;20.40;79.00;;;;;;4983610;28;20453;-59
2021/07/12 05:35:43;;;;;;;3.47;2.05;;;20.40;79.10;;;;;;4967259;28;20053;-59
2021/07/12 05:38:09;;;;;;;1.95;1.65;;;20.40;79.00;;;;;;4984638;28;20141;-58
2021/07/12 05:40:35;;;;;;;5.50;2.42;;;20.40;79.00;;;;;;4982771;28;20208;-59
2021/07/12 05:43:01;;;;;;;2.03;1.77;;;20.40;79.10;;;;;;4980650;28;20121;-59
2021/07/12 05:45:26;;;;;;;3.42;2.28;;;20.40;79.10;;;;;;4983097;28;20445;-59
2021/07/12 05:47:52;;;;;;;2.67;1.75;;;20.40;79.10;;;;;;4982182;28;20045;-59
2021/07/12 05:50:17;;;;;;;2.38;1.92;;;20.40;79.10;;;;;;4981320;28;20054;-59
2021/07/12 05:52:43;;;;;;;3.53;1.83;;;20.40;78.90;;;;;;4982530;28;20159;-59
2021/07/12 05:55:09;;;;;;;2.88;2.00;;;20.50;79.00;;;;;;4982151;28;20057;-59
2021/07/12 05:57:34;;;;;;;2.63;2.03;;;20.40;78.80;;;;;;4982848;28;20136;-59
2021/07/12 06:00:00;;;;;;;4.75;1.90;;;20.50;79.00;;;;;;4983672;28;20066;-59
2021/07/12 06:02:26;;;;;;;3.58;1.77;;;20.50;79.00;;;;;;4984492;28;20034;-59
2021/07/12 06:04:51;;;;;;;2.03;1.73;;;20.50;79.00;;;;;;4983119;28;20034;-59
2021/07/12 06:07:16;;;;;;;3.65;2.22;;;20.50;78.90;;;;;;4983337;28;20042;-59
2021/07/12 06:09:42;;;;;;;2.88;1.92;;;20.50;78.90;;;;;;4965667;28;21087;-59
2021/07/12 06:12:08;;;;;;;4.55;1.90;;;20.50;78.90;;;;;;4964795;28;20117;-59
2021/07/12 06:14:33;;;;;;;4.13;2.00;;;20.60;78.90;;;;;;4979201;28;20563;-59
2021/07/12 06:16:59;;;;;;;2.75;1.83;;;20.60;78.90;;;;;;4981073;28;20133;-59
2021/07/12 06:19:24;;;;;;;4.07;1.95;;;20.60;78.90;;;;;;4979694;28;20505;-59
2021/07/12 06:21:50;;;;;;;6.93;2.08;;;20.60;78.90;;;;;;4979765;28;20040;-59
2021/07/12 06:24:16;;;;;;;7.25;2.22;;;20.60;78.90;;;;;;4980545;28;20026;-59
2021/07/12 06:26:41;;;;;;;8.05;2.00;;;20.60;79.00;;;;;;4967196;28;20403;-59
2021/07/12 06:29:07;;;;;;;2.63;1.92;;;20.60;79.20;;;;;;4978327;28;20050;-59
2021/07/12 06:31:32;;;;;;;6.53;2.10;;;20.70;79.00;;;;;;4981695;28;20100;-59
2021/07/12 06:33:58;;;;;;;4.10;2.30;;;20.70;78.90;;;;;;4982607;28;20064;-59
2021/07/12 06:36:23;;;;;;;15.15;3.05;;;20.70;78.80;;;;;;4981313;28;20956;-59
2021/07/12 06:38:49;;;;;;;36.92;5.90;;;20.70;78.80;;;;;;4981864;28;20437;-59
2021/07/12 06:41:14;;;;;;;38.40;5.70;;;20.70;78.70;;;;;;4982318;28;20030;-59
2021/07/12 06:43:40;;;;;;;40.58;6.65;;;20.70;78.60;;;;;;4982471;28;20031;-59
2021/07/12 06:46:05;;;;;;;53.88;10.65;;;20.70;78.70;;;;;;4980475;28;20173;-59
2021/07/12 06:48:31;;;;;;;49.08;8.98;;;20.80;78.80;;;;;;4977920;28;20548;-59
2021/07/12 06:50:56;;;;;;;91.47;20.00;;;20.80;79.00;;;;;;4979445;28;20505;-59
2021/07/12 06:53:22;;;;;;;102.43;23.25;;;20.80;78.90;;;;;;4979744;28;20459;-59
2021/07/12 06:55:47;;;;;;;148.30;31.25;;;20.80;78.80;;;;;;4981865;28;20850;-60
2021/07/12 06:58:13;;;;;;;141.73;35.63;;;20.80;78.70;;;;;;4979827;28;20039;-60
2021/07/12 07:00:39;;;;;;;144.23;33.28;;;20.90;78.80;;;;;;4976953;28;20040;-59
2021/07/12 07:03:05;;;;;;;132.07;29.50;;;20.80;78.60;;;;;;4982765;28;20053;-59
2021/07/12 07:05:31;;;;;;;116.53;27.48;;;20.90;79.00;;;;;;4981447;28;20034;-60
2021/07/12 07:07:56;;;;;;;114.95;25.95;;;20.90;79.50;;;;;;4980062;28;20117;-59
2021/07/12 07:10:22;;;;;;;98.10;25.02;;;20.90;79.30;;;;;;4977819;28;20399;-59
2021/07/12 07:12:47;;;;;;;105.32;23.65;;;20.90;79.80;;;;;;4976536;28;20607;-59
2021/07/12 07:15:13;;;;;;;89.40;20.35;;;20.80;80.00;;;;;;4977070;28;20042;-60
2021/07/12 07:17:39;;;;;;;93.82;20.60;;;20.80;80.30;;;;;;4991331;28;20034;-59
2021/07/12 07:20:05;;;;;;;70.40;19.00;;;20.80;80.30;;;;;;4978430;28;20034;-59
2021/07/12 07:22:30;;;;;;;69.25;17.00;;;20.80;80.10;;;;;;4979647;28;20037;-60
2021/07/12 07:24:56;;;;;;;73.47;18.05;;;20.80;80.30;;;;;;4978105;28;20338;-59
2021/07/12 07:27:21;;;;;;;66.28;16.77;;;20.80;80.50;;;;;;4978189;28;20085;-59
2021/07/12 07:29:47;;;;;;;94.88;19.30;;;20.80;80.70;;;;;;4963610;28;20030;-59
2021/07/12 07:32:13;;;;;;;67.63;16.35;;;20.90;80.70;;;;;;4979381;28;20034;-59
2021/07/12 07:34:39;;;;;;;54.90;15.60;;;20.80;80.80;;;;;;4979963;28;20494;-59
2021/07/12 07:37:04;;;;;;;57.40;15.05;;;20.80;80.70;;;;;;4973693;28;20073;-59
2021/07/12 07:39:30;;;;;;;61.90;13.57;;;20.80;80.50;;;;;;4977762;28;20026;-59
2021/07/12 07:41:58;;;;;;;68.95;14.95;;;20.90;80.40;;;;;;4979528;28;20026;-59
2021/07/12 07:44:23;;;;;;;41.13;13.60;;;20.90;80.80;;;;;;4980121;28;20566;-59
2021/07/12 07:46:49;;;;;;;46.33;12.40;;;20.90;80.70;;;;;;4992730;28;20157;-59
2021/07/12 07:49:14;;;;;;;48.58;11.35;;;20.90;80.40;;;;;;4978176;28;20038;-59
2021/07/12 07:51:41;;;;;;;51.85;12.13;;;20.90;80.90;;;;;;4979486;28;20114;-59
2021/07/12 07:54:06;;;;;;;37.17;11.07;;;21.00;80.80;;;;;;4978479;28;20030;-59
2021/07/12 07:56:32;;;;;;;32.85;10.18;;;21.00;80.60;;;;;;4979564;28;20041;-59
2021/07/12 07:58:58;;;;;;;31.88;9.40;;;21.00;80.90;;;;;;4981152;28;20095;-59
2021/07/12 08:01:23;;;;;;;29.10;9.95;;;21.00;81.10;;;;;;4979778;28;20282;-60
2021/07/12 08:03:49;;;;;;;46.58;9.52;;;21.00;81.00;;;;;;4978548;28;20731;-59
2021/07/12 08:06:17;;;;;;;35.80;9.02;;;21.10;81.70;;;;;;4978159;28;20034;-59
2021/07/12 08:08:46;;;;;;;38.85;8.63;;;21.10;81.00;;;;;;4976357;28;20042;-59
2021/07/12 08:11:12;;;;;;;35.85;8.70;;;21.10;80.80;;;;;;4979309;28;20049;-59
2021/07/12 08:13:37;;;;;;;30.13;7.88;;;21.10;80.70;;;;;;4977499;28;20030;-59
2021/07/12 08:16:03;;;;;;;34.65;8.75;;;21.10;80.60;;;;;;4973103;28;20089;-60
2021/07/12 08:18:29;;;;;;;42.33;7.88;;;21.20;80.40;;;;;;4980232;28;20052;-59
2021/07/12 08:20:54;;;;;;;41.97;8.13;;;21.20;80.30;;;;;;4978982;28;20034;-59
2021/07/12 08:23:20;;;;;;;28.33;7.72;;;21.20;80.20;;;;;;4979000;28;20164;-59
2021/07/12 08:25:45;;;;;;;40.20;8.48;;;21.20;80.00;;;;;;4981794;28;20042;-60
2021/07/12 08:28:11;;;;;;;36.95;8.50;;;21.20;79.80;;;;;;4979104;28;20023;-59
2021/07/12 08:30:37;;;;;;;42.38;8.18;;;21.30;79.80;;;;;;4979163;28;20070;-59
2021/07/12 08:33:03;;;;;;;36.20;7.15;;;21.30;79.60;;;;;;4979545;28;20029;-59
2021/07/12 08:35:28;;;;;;;28.70;7.13;;;21.30;79.50;;;;;;4980370;28;20129;-59
2021/07/12 08:37:54;;;;;;;37.72;6.75;;;21.30;79.30;;;;;;4979663;28;20097;-59
2021/07/12 08:40:21;;;;;;;29.42;6.57;;;21.30;79.50;;;;;;4980687;28;20043;-59
2021/07/12 08:42:52;;;;;;;34.47;7.85;;;21.40;79.70;;;;;;4978882;28;20070;-59
2021/07/12 08:45:18;;;;;;;35.83;6.70;;;21.40;79.70;;;;;;4995445;28;20583;-60
2021/07/12 08:47:43;;;;;;;130.48;15.65;;;21.50;79.80;;;;;;4973689;28;20042;-59
2021/07/12 08:50:09;;;;;;;44.55;7.45;;;21.50;80.00;;;;;;4980603;28;20035;-59
2021/07/12 08:52:35;;;;;;;39.47;6.15;;;21.50;80.10;;;;;;4979843;28;20041;-59
2021/07/12 08:55:00;;;;;;;37.20;5.85;;;21.60;80.30;;;;;;4977138;28;20405;-59
2021/07/12 08:57:26;;;;;;;44.38;7.20;;;21.60;80.20;;;;;;4976718;28;20486;-62
2021/07/12 08:59:54;;;;;;;28.13;6.18;;;21.60;80.20;;;;;;4979760;28;20500;-59
2021/07/12 09:02:20;;;;;;;29.65;6.35;;;21.70;80.00;;;;;;4981316;28;20104;-60
2021/07/12 09:04:50;;;;;;;32.25;6.28;;;21.70;79.70;;;;;;4980564;28;20034;-59
2021/07/12 09:07:23;;;;;;;29.13;5.60;;;21.80;79.80;;;;;;4978044;28;20144;-59
2021/07/12 09:10:14;;;;;;;28.52;5.20;;;21.80;79.60;;;;;;4977316;28;20121;-60
2021/07/12 09:12:50;;;;;;;27.60;4.95;;;21.90;79.40;;;;;;4979442;28;20026;-58
2021/07/12 09:15:17;;;;;;;16.23;4.55;;;21.90;79.20;;;;;;4978130;28;20081;-59
2021/07/12 09:17:44;;;;;;;21.60;5.18;;;22.00;79.00;;;;;;4979228;28;20023;-59
2021/07/12 09:20:11;;;;;;;29.10;4.90;;;22.00;79.00;;;;;;4980201;28;20038;-60
2021/07/12 09:22:38;;;;;;;19.65;4.78;;;22.00;79.00;;;;;;4981266;28;20481;-59
2021/07/12 09:25:09;;;;;;;25.45;5.07;;;22.10;78.90;;;;;;4963569;28;20034;-60
2021/07/12 09:27:35;;;;;;;19.73;4.55;;;22.20;78.80;;;;;;4982132;28;20125;-59
2021/07/12 09:30:06;;;;;;;29.60;4.43;;;22.20;78.80;;;;;;4982705;28;20092;-59
2021/07/12 09:32:33;;;;;;;23.70;4.97;;;22.20;78.80;;;;;;4980804;28;20019;-60
2021/07/12 09:35:02;;;;;;;29.75;5.32;;;22.30;79.00;;;;;;4978212;28;20137;-59
2021/07/12 09:37:28;;;;;;;27.60;4.82;;;22.30;79.10;;;;;;4981582;28;20050;-59
2021/07/12 09:39:53;;;;;;;23.50;5.35;;;22.30;79.10;;;;;;4981204;28;20105;-62
2021/07/12 09:42:27;;;;;;;32.20;5.13;;;22.40;79.10;;;;;;4982439;28;20557;-60
2021/07/12 09:44:57;;;;;;;27.33;4.80;;;22.40;79.30;;;;;;4982125;28;20053;-60
2021/07/12 09:47:24;;;;;;;35.10;4.95;;;22.40;79.30;;;;;;4980659;28;20027;-60
2021/07/12 09:49:51;;;;;;;42.75;6.10;;;22.40;79.30;;;;;;4979418;28;20038;-60
2021/07/12 09:52:18;;;;;;;33.40;4.97;;;22.50;79.30;;;;;;4980288;28;20096;-59
2021/07/12 09:54:45;;;;;;;21.23;4.72;;;22.50;79.20;;;;;;4967053;28;20061;-60
2021/07/12 09:57:18;;;;;;;31.45;4.55;;;22.60;79.40;;;;;;4982788;28;20465;-60
2021/07/12 10:00:02;;;;;;;16.80;4.55;;;22.60;79.40;;;;;;4978870;28;20022;-59
2021/07/12 10:02:29;;;;;;;29.13;5.20;;;22.60;79.20;;;;;;4982323;28;20053;-59
2021/07/12 10:05:15;;;;;;;29.08;4.40;;;22.70;79.10;;;;;;4979453;28;20021;-60
2021/07/12 10:07:41;;;;;;;18.00;4.53;;;22.70;79.00;;;;;;4975224;28;20035;-59
2021/07/12 10:10:13;;;;;;;18.52;3.90;;;22.80;78.90;;;;;;4980839;28;20052;-59
2021/07/12 10:12:39;;;;;;;16.80;3.85;;;22.80;78.70;;;;;;4979035;28;20023;-60
2021/07/12 10:15:05;;;;;;;19.05;4.22;;;22.80;78.60;;;;;;4979045;28;20042;-60
2021/07/12 10:17:31;;;;;;;12.05;3.58;;;22.90;78.30;;;;;;4979902;28;20470;-60
2021/07/12 10:19:56;;;;;;;14.70;3.78;;;22.90;78.30;;;;;;4980549;28;20030;-59
2021/07/12 10:22:22;;;;;;;16.45;3.67;;;22.90;78.10;;;;;;4980167;28;20039;-59
2021/07/12 10:24:48;;;;;;;24.27;4.03;;;23.00;78.10;;;;;;4982732;28;20082;-60
2021/07/12 10:27:24;;;;;;;31.45;4.43;;;23.00;77.90;;;;;;4980801;28;20185;-60
2021/07/12 10:29:50;;;;;;;26.83;4.85;;;23.00;77.60;;;;;;4947606;28;20014;-59
2021/07/12 10:32:22;;;;;;;21.88;4.88;;;23.10;77.40;;;;;;4980714;28;20129;-59
2021/07/12 10:34:57;;;;;;;26.95;5.18;;;23.10;77.10;;;;;;4980522;28;20112;-59
2021/07/12 10:37:32;;;;;;;22.00;4.57;;;23.10;76.60;;;;;;4980908;28;20090;-59
2021/07/12 10:40:11;;;;;;;24.90;5.25;;;23.20;76.20;;;;;;4965595;28;20066;-59
2021/07/12 10:42:43;;;;;;;24.20;4.97;;;23.20;76.00;;;;;;4978913;28;20049;-61
2021/07/12 10:45:28;;;;;;;19.00;3.65;;;23.30;76.00;;;;;;4981172;28;20030;-61
2021/07/12 10:48:05;;;;;;;33.13;4.53;;;23.30;75.90;;;;;;4981754;28;20152;-59
2021/07/12 10:50:37;;;;;;;20.83;4.80;;;23.40;75.90;;;;;;4980161;28;20030;-60
2021/07/12 10:53:15;;;;;;;21.35;4.75;;;23.40;76.00;;;;;;4996342;28;20058;-59
2021/07/12 10:55:42;;;;;;;30.73;4.65;;;23.50;75.90;;;;;;4981351;28;20038;-60
2021/07/12 10:58:29;;;;;;;23.23;3.95;;;23.60;75.80;;;;;;4980530;28;20041;-59
2021/07/12 11:00:56;;;;;;;24.75;4.28;;;23.60;75.50;;;;;;4981838;28;20185;-59
2021/07/12 11:03:50;;;;;;;12.75;3.85;;;23.70;75.40;;;;;;4982189;28;20529;-60
2021/07/12 11:06:27;;;;;;;16.48;4.03;;;23.80;75.20;;;;;;4995767;28;20038;-59
2021/07/12 11:08:56;;;;;;;13.23;3.55;;;23.90;74.90;;;;;;4977048;28;20336;-60
2021/07/12 11:11:22;;;;;;;18.52;3.88;;;24.00;74.80;;;;;;4978799;28;20053;-59
2021/07/12 11:13:54;;;;;;;21.75;3.90;;;24.10;74.50;;;;;;4983033;28;20034;-60
2021/07/12 11:16:24;;;;;;;15.00;3.45;;;24.10;74.30;;;;;;4980729;28;20117;-59
2021/07/12 11:18:50;;;;;;;12.55;3.65;;;24.20;73.90;;;;;;4968099;28;20057;-60
2021/07/12 11:21:36;;;;;;;28.35;4.85;;;24.40;73.80;;;;;;4964039;28;20526;-60
2021/07/12 11:24:07;;;;;;;;;;;24.50;73.40;;;;;;4980089;28;20126;-58
2021/07/12 11:26:34;;;;;;;23.50;4.72;;;24.60;73.30;;;;;;4982514;28;19905;-59
2021/07/12 11:29:20;;;;;;;23.27;4.72;;;24.60;73.20;;;;;;4980615;28;20401;-59
2021/07/12 11:31:56;;;;;;;23.23;4.55;;;24.70;73.10;;;;;;4966953;28;20297;-60
2021/07/12 11:34:27;;;;;;;31.60;4.45;;;24.80;73.00;;;;;;4979340;28;20104;-60
2021/07/12 11:37:25;;;;;;;18.58;3.63;;;24.90;72.80;;;;;;4980523;28;20046;-60
2021/07/12 11:40:00;;;;;;;20.83;3.80;;;25.00;72.80;;;;;;4980185;28;20041;-59
2021/07/12 11:42:25;;;;;;;23.90;4.43;;;25.00;72.70;;;;;;4981292;28;20035;-60
2021/07/12 11:45:16;;;;;;;24.02;5.28;;;25.10;72.70;;;;;;4977941;28;21678;-59
2021/07/12 11:47:52;;;;;;;17.30;3.90;;;25.10;72.70;;;;;;4978880;28;20551;-60
2021/07/12 11:50:22;;;;;;;15.45;3.70;;;25.10;72.60;;;;;;4979476;28;20030;-60
2021/07/12 11:52:49;;;;;;;54.55;5.88;;;25.20;72.30;;;;;;4979270;28;20052;-59
2021/07/12 11:55:20;;;;;;;97.82;9.65;;;25.20;72.20;;;;;;4981355;28;20470;-60
2021/07/12 11:57:47;;;;;;;26.20;4.20;;;25.20;71.90;;;;;;4961861;28;20045;-60
2021/07/12 12:00:22;;;;;;;26.77;4.50;;;25.30;71.80;;;;;;4978501;28;20038;-59
2021/07/12 12:02:57;;;;;;;14.20;4.07;;;25.30;71.40;;;;;;4979103;28;20018;-60
2021/07/12 12:05:23;;;;;;;18.50;4.10;;;25.40;71.20;;;;;;4980719;28;20072;-60
2021/07/12 12:07:48;;;;;;;14.10;3.08;;;25.40;70.80;;;;;;4980818;28;20344;-59
2021/07/12 12:10:20;;;;;;;16.25;4.03;;;25.50;70.40;;;;;;4976470;28;20132;-60
2021/07/12 12:12:53;;;;;;;20.98;4.07;;;25.50;69.90;;;;;;4980747;28;20402;-60
2021/07/12 12:15:29;;;;;;;20.83;3.95;;;25.60;69.80;;;;;;4967189;28;20041;-60
2021/07/12 12:17:55;;;;;;;17.55;3.22;;;25.60;69.20;;;;;;4978894;28;20045;-60
2021/07/12 12:20:23;;;;;;;10.32;2.90;;;25.70;68.90;;;;;;4980567;28;20030;-60
2021/07/12 12:22:57;;;;;;;15.45;3.35;;;25.70;68.70;;;;;;4981179;28;20042;-59
2021/07/12 12:25:22;;;;;;;13.32;3.10;;;25.80;68.70;;;;;;4977397;28;20035;-60
2021/07/12 12:27:48;;;;;;;17.73;3.88;;;25.80;68.70;;;;;;4979229;28;20734;-60
2021/07/12 12:30:13;;;;;;;11.77;3.40;;;25.90;68.80;;;;;;4979738;28;20030;-60
2021/07/12 12:32:39;;;;;;;12.45;3.15;;;25.90;68.80;;;;;;4980783;28;20469;-60
2021/07/12 12:35:06;;;;;;;12.25;3.10;;;25.90;68.60;;;;;;4981275;28;20381;-60
2021/07/12 12:37:39;;;;;;;20.80;3.40;;;26.00;68.40;;;;;;4962635;28;20068;-60
2021/07/12 12:40:17;;;;;;;12.77;2.80;;;26.00;68.10;;;;;;4963192;28;20041;-60
2021/07/12 12:42:44;;;;;;;22.15;3.33;;;26.10;67.70;;;;;;4981517;28;20026;-60
2021/07/12 12:45:10;;;;;;;20.60;3.63;;;26.10;67.40;;;;;;4982134;28;20041;-59
2021/07/12 12:47:35;;;;;;;15.40;3.50;;;26.20;67.50;;;;;;4982821;28;20030;-60